Terminal Aerodrome Forecast
Issued by NWS

Home | Current Version | Previous Version | Text Only | Print | Product List | Glossary Off
Versions: 1 2 3 4 5 6 7 8 9 10 11 12 13 14 15 16

987
FTUS43 KPAH 271728
TAFCGI
TAF
KCGI 271728Z 2718/2818 26008KT P6SM SKC
     FM280000 21004KT P6SM SKC
     FM281400 30009KT P6SM SCT030 BKN080=

USA.gov is the U.S. government's official web portal to all federal, state and local government web resources and services.